AEZ67T LIRA-LIBD
Flight info
| Callsign | AEZ67T |
|---|---|
| Flight time | 0h 38m |
| Altitude | 31000 |
| Route | SIPRO DCT AMSOR DCT DOGUS |
| Aircraft | B738/M-SDE2E3FGHIRWXY/LB1 |
Departure
| Time | 2026-04-30 18:38 |
|---|---|
| Airport | Ciampino–G. B. Pastine International Airport (LIRA) |
Arrival
| Time | 2026-04-30 19:16 |
|---|---|
| Airport | Bari Karol Wojtyła International Airport (LIBD) |
| Time | Latitude | Longitude | Altitude | Speed | Heading |
|---|---|---|---|---|---|
| 2026-04-30 18:20 | 41.80097 | 12.59070 | 403 ft | 0 kts | 123° |
| 2026-04-30 18:30 | 41.80097 | 12.59069 | 405 ft | 1 kts | 122° |
| 2026-04-30 18:31 | 41.80105 | 12.59051 | 403 ft | 3 kts | 114° |
| 2026-04-30 18:31 | 41.80114 | 12.58999 | 390 ft | 3 kts | 85° |
| 2026-04-30 18:32 | 41.80103 | 12.58948 | 401 ft | 3 kts | 59° |
| 2026-04-30 18:32 | 41.80093 | 12.58928 | 403 ft | 2 kts | 53° |
| 2026-04-30 18:32 | 41.80092 | 12.58926 | 403 ft | 0 kts | 52° |
| 2026-04-30 18:34 | 41.80107 | 12.58952 | 401 ft | 9 kts | 52° |
| 2026-04-30 18:35 | 41.80147 | 12.59022 | 405 ft | 10 kts | 52° |
| 2026-04-30 18:35 | 41.80190 | 12.59087 | 405 ft | 9 kts | 24° |
| 2026-04-30 18:35 | 41.80251 | 12.59063 | 406 ft | 9 kts | 332° |
| 2026-04-30 18:36 | 41.80465 | 12.58916 | 406 ft | 21 kts | 332° |
| 2026-04-30 18:36 | 41.80592 | 12.58827 | 406 ft | 20 kts | 333° |
| 2026-04-30 18:36 | 41.80759 | 12.58845 | 415 ft | 11 kts | 64° |
| 2026-04-30 18:37 | 41.80742 | 12.58928 | 412 ft | 10 kts | 147° |
| 2026-04-30 18:37 | 41.80676 | 12.58972 | 416 ft | 12 kts | 152° |
| 2026-04-30 18:37 | 41.80410 | 12.59157 | 412 ft | 87 kts | 153° |
| 2026-04-30 18:37 | 41.79621 | 12.59698 | 433 ft | 163 kts | 154° |
| 2026-04-30 18:38 | 41.78569 | 12.60405 | 1327 ft | 166 kts | 154° |
| 2026-04-30 18:38 | 41.77536 | 12.60990 | 2507 ft | 165 kts | 168° |
| 2026-04-30 18:38 | 41.76296 | 12.60967 | 2944 ft | 199 kts | 194° |
| 2026-04-30 18:38 | 41.74989 | 12.60115 | 3373 ft | 220 kts | 221° |
| 2026-04-30 18:39 | 41.74134 | 12.58395 | 3946 ft | 226 kts | 252° |
| 2026-04-30 18:39 | 41.73705 | 12.56358 | 4648 ft | 231 kts | 255° |
| 2026-04-30 18:39 | 41.73232 | 12.54290 | 5407 ft | 233 kts | 253° |
| 2026-04-30 18:39 | 41.72734 | 12.52253 | 6262 ft | 234 kts | 253° |
| 2026-04-30 18:40 | 41.72181 | 12.50206 | 7146 ft | 238 kts | 245° |
| 2026-04-30 18:40 | 41.70994 | 12.48507 | 7479 ft | 271 kts | 209° |
| 2026-04-30 18:40 | 41.69106 | 12.47992 | 8054 ft | 289 kts | 174° |
| 2026-04-30 18:40 | 41.67226 | 12.48970 | 8877 ft | 295 kts | 141° |
| 2026-04-30 18:41 | 41.65913 | 12.51071 | 9767 ft | 298 kts | 115° |
| 2026-04-30 18:41 | 41.65188 | 12.53693 | 10492 ft | 307 kts | 104° |
| 2026-04-30 18:41 | 41.64651 | 12.56581 | 10735 ft | 334 kts | 101° |
| 2026-04-30 18:41 | 41.64139 | 12.59736 | 11007 ft | 357 kts | 100° |
| 2026-04-30 18:42 | 41.63614 | 12.62988 | 11620 ft | 367 kts | 100° |
| 2026-04-30 18:42 | 41.62464 | 12.69738 | 13228 ft | 378 kts | 101° |
| 2026-04-30 18:42 | 41.61849 | 12.73180 | 13978 ft | 384 kts | 101° |
| 2026-04-30 18:45 | 41.54727 | 13.11066 | 19428 ft | 455 kts | 102° |
| 2026-04-30 18:45 | 41.53943 | 13.15171 | 19995 ft | 458 kts | 102° |
| 2026-04-30 18:45 | 41.53152 | 13.19309 | 20478 ft | 463 kts | 102° |
| 2026-04-30 18:46 | 41.52353 | 13.23480 | 20975 ft | 467 kts | 102° |
| 2026-04-30 18:46 | 41.51542 | 13.27701 | 21423 ft | 471 kts | 102° |
| 2026-04-30 18:46 | 41.50723 | 13.31958 | 21890 ft | 475 kts | 102° |
| 2026-04-30 18:46 | 41.49898 | 13.36238 | 22354 ft | 479 kts | 102° |
| 2026-04-30 18:47 | 41.49061 | 13.40564 | 22809 ft | 483 kts | 102° |
| 2026-04-30 18:47 | 41.48217 | 13.44922 | 23277 ft | 487 kts | 102° |
| 2026-04-30 18:47 | 41.47365 | 13.49312 | 23691 ft | 491 kts | 102° |
| 2026-04-30 18:47 | 41.46505 | 13.53731 | 24057 ft | 495 kts | 103° |
| 2026-04-30 18:48 | 41.45647 | 13.58134 | 24375 ft | 499 kts | 103° |
| 2026-04-30 18:48 | 41.44771 | 13.62617 | 24718 ft | 502 kts | 103° |
| 2026-04-30 18:48 | 41.43884 | 13.67145 | 25053 ft | 506 kts | 103° |
| 2026-04-30 18:48 | 41.42992 | 13.71687 | 25369 ft | 510 kts | 103° |
| 2026-04-30 18:49 | 41.42089 | 13.76275 | 25685 ft | 513 kts | 103° |
| 2026-04-30 18:49 | 41.41178 | 13.80890 | 26016 ft | 516 kts | 103° |
| 2026-04-30 18:49 | 41.40262 | 13.85525 | 26349 ft | 518 kts | 103° |
| 2026-04-30 18:49 | 41.39341 | 13.90170 | 26746 ft | 520 kts | 103° |
| 2026-04-30 18:50 | 41.38417 | 13.94822 | 27205 ft | 520 kts | 103° |
| 2026-04-30 18:50 | 41.37502 | 13.99414 | 27644 ft | 520 kts | 103° |
| 2026-04-30 18:50 | 41.36634 | 14.03761 | 28059 ft | 520 kts | 103° |
| 2026-04-30 18:50 | 41.35703 | 14.08421 | 28462 ft | 521 kts | 103° |
| 2026-04-30 18:51 | 41.34768 | 14.13087 | 28855 ft | 523 kts | 103° |
| 2026-04-30 18:51 | 41.33829 | 14.17761 | 29284 ft | 524 kts | 103° |
| 2026-04-30 18:51 | 41.32885 | 14.22452 | 29752 ft | 524 kts | 103° |
| 2026-04-30 18:51 | 41.31938 | 14.27146 | 30035 ft | 528 kts | 104° |
| 2026-04-30 18:52 | 41.30979 | 14.31886 | 30363 ft | 530 kts | 104° |
| 2026-04-30 18:52 | 41.30037 | 14.36537 | 30795 ft | 529 kts | 104° |
| 2026-04-30 18:52 | 41.29077 | 14.41255 | 31220 ft | 527 kts | 104° |
| 2026-04-30 18:53 | 41.27153 | 14.50696 | 31198 ft | 527 kts | 104° |
| 2026-04-30 18:53 | 41.25257 | 14.60026 | 31181 ft | 519 kts | 103° |
| 2026-04-30 18:53 | 41.24388 | 14.64691 | 30898 ft | 523 kts | 102° |
| 2026-04-30 18:54 | 41.23515 | 14.69409 | 30296 ft | 528 kts | 103° |
| 2026-04-30 18:54 | 41.22607 | 14.74142 | 29454 ft | 528 kts | 103° |
| 2026-04-30 18:54 | 41.21667 | 14.78838 | 28638 ft | 525 kts | 104° |
| 2026-04-30 18:54 | 41.20707 | 14.83475 | 28040 ft | 517 kts | 104° |
| 2026-04-30 18:55 | 41.19738 | 14.88057 | 27442 ft | 515 kts | 104° |
| 2026-04-30 18:55 | 41.17794 | 14.97174 | 26271 ft | 519 kts | 105° |
| 2026-04-30 18:55 | 41.16857 | 15.01561 | 25700 ft | 518 kts | 105° |
| 2026-04-30 18:56 | 41.14914 | 15.10653 | 24497 ft | 505 kts | 105° |
| 2026-04-30 18:56 | 41.13960 | 15.15112 | 23895 ft | 499 kts | 105° |
| 2026-04-30 18:56 | 41.13015 | 15.19522 | 23197 ft | 494 kts | 105° |
| 2026-04-30 18:57 | 41.11174 | 15.28093 | 21989 ft | 479 kts | 104° |
| 2026-04-30 18:57 | 41.10267 | 15.32300 | 21434 ft | 472 kts | 105° |
| 2026-04-30 18:57 | 41.09369 | 15.36456 | 20846 ft | 466 kts | 105° |
| 2026-04-30 18:58 | 41.07601 | 15.44623 | 19718 ft | 456 kts | 104° |
| 2026-04-30 18:58 | 41.06729 | 15.48639 | 19159 ft | 452 kts | 104° |
| 2026-04-30 18:58 | 41.05863 | 15.52622 | 18600 ft | 447 kts | 104° |
| 2026-04-30 18:59 | 41.04153 | 15.60466 | 17385 ft | 439 kts | 104° |
| 2026-04-30 19:00 | 41.01349 | 15.71705 | 15685 ft | 425 kts | 122° |
| 2026-04-30 19:00 | 40.99596 | 15.74805 | 15388 ft | 412 kts | 123° |
| 2026-04-30 19:00 | 40.98210 | 15.81657 | 15190 ft | 374 kts | 85° |
| 2026-04-30 19:01 | 40.98727 | 15.88228 | 15025 ft | 346 kts | 80° |
| 2026-04-30 19:01 | 40.98995 | 15.91341 | 14951 ft | 334 kts | 80° |
| 2026-04-30 19:02 | 40.99499 | 15.97406 | 13970 ft | 341 kts | 81° |
| 2026-04-30 19:02 | 40.99996 | 16.03544 | 13064 ft | 341 kts | 81° |
| 2026-04-30 19:03 | 41.00483 | 16.09723 | 12255 ft | 336 kts | 81° |
| 2026-04-30 19:03 | 41.00961 | 16.15830 | 11482 ft | 330 kts | 81° |
| 2026-04-30 19:04 | 41.01429 | 16.21832 | 10714 ft | 326 kts | 81° |
| 2026-04-30 19:04 | 41.01889 | 16.27759 | 9979 ft | 321 kts | 82° |
| 2026-04-30 19:05 | 41.02335 | 16.33562 | 9218 ft | 316 kts | 81° |
| 2026-04-30 19:05 | 41.03181 | 16.39124 | 8572 ft | 303 kts | 66° |
| 2026-04-30 19:06 | 41.04752 | 16.44269 | 7801 ft | 300 kts | 65° |
| 2026-04-30 19:06 | 41.05493 | 16.46784 | 7695 ft | 288 kts | 66° |
| 2026-04-30 19:06 | 41.06843 | 16.51441 | 7459 ft | 256 kts | 66° |
| 2026-04-30 19:07 | 41.08052 | 16.55616 | 7026 ft | 236 kts | 64° |
| 2026-04-30 19:07 | 41.08674 | 16.57715 | 6290 ft | 250 kts | 66° |
| 2026-04-30 19:08 | 41.09893 | 16.62055 | 4798 ft | 254 kts | 67° |
| 2026-04-30 19:08 | 41.11123 | 16.66427 | 3448 ft | 249 kts | 68° |
| 2026-04-30 19:08 | 41.11298 | 16.68630 | 3219 ft | 238 kts | 97° |
| 2026-04-30 19:09 | 41.09324 | 16.71561 | 2995 ft | 211 kts | 160° |
| 2026-04-30 19:09 | 41.07995 | 16.72066 | 2968 ft | 195 kts | 168° |
| 2026-04-30 19:09 | 41.06695 | 16.71942 | 2974 ft | 187 kts | 209° |
| 2026-04-30 19:10 | 41.05553 | 16.70109 | 3034 ft | 185 kts | 253° |
| 2026-04-30 19:10 | 41.04572 | 16.67068 | 2984 ft | 176 kts | 251° |
| 2026-04-30 19:11 | 41.04152 | 16.65790 | 2976 ft | 174 kts | 251° |
| 2026-04-30 19:11 | 41.03279 | 16.62781 | 2736 ft | 178 kts | 272° |
| 2026-04-30 19:11 | 41.03624 | 16.61316 | 2475 ft | 165 kts | 314° |
| 2026-04-30 19:12 | 41.04566 | 16.60593 | 2255 ft | 156 kts | 341° |
| 2026-04-30 19:12 | 41.05567 | 16.60122 | 2105 ft | 150 kts | 339° |
| 2026-04-30 19:12 | 41.06548 | 16.59654 | 2083 ft | 150 kts | 340° |
| 2026-04-30 19:13 | 41.08509 | 16.58759 | 1962 ft | 151 kts | 1° |
| 2026-04-30 19:13 | 41.09574 | 16.60853 | 2019 ft | 165 kts | 75° |
| 2026-04-30 19:13 | 41.09973 | 16.62245 | 2014 ft | 161 kts | 59° |
| 2026-04-30 19:14 | 41.10379 | 16.63700 | 1716 ft | 172 kts | 68° |
| 2026-04-30 19:14 | 41.10756 | 16.65144 | 1620 ft | 161 kts | 65° |
| 2026-04-30 19:14 | 41.11133 | 16.66480 | 1421 ft | 149 kts | 66° |
| 2026-04-30 19:14 | 41.11491 | 16.67744 | 1283 ft | 144 kts | 66° |
| 2026-04-30 19:15 | 41.11838 | 16.68963 | 1088 ft | 144 kts | 65° |
| 2026-04-30 19:15 | 41.12535 | 16.71418 | 679 ft | 144 kts | 68° |
| 2026-04-30 19:15 | 41.12887 | 16.72659 | 464 ft | 145 kts | 68° |
| 2026-04-30 19:16 | 41.13240 | 16.73889 | 234 ft | 142 kts | 68° |
| 2026-04-30 19:16 | 41.13586 | 16.75086 | 136 ft | 131 kts | 69° |
| 2026-04-30 19:16 | 41.13999 | 16.76550 | 122 ft | 17 kts | 77° |
| 2026-04-30 19:17 | 41.13973 | 16.76706 | 124 ft | 17 kts | 124° |
| 2026-04-30 19:17 | 41.13859 | 16.76646 | 128 ft | 10 kts | 216° |
| 2026-04-30 19:17 | 41.13843 | 16.76630 | 126 ft | 9 kts | 217° |
| 2026-04-30 19:18 | 41.13768 | 16.76558 | 135 ft | 9 kts | 189° |
| 2026-04-30 19:18 | 41.13723 | 16.76565 | 135 ft | 0 kts | 173° |
| 2026-04-30 19:19 | 41.13720 | 16.76563 | 135 ft | 3 kts | 197° |
| 2026-04-30 19:19 | 41.13670 | 16.76530 | 135 ft | 13 kts | 216° |
| 2026-04-30 19:19 | 41.13603 | 16.76343 | 135 ft | 13 kts | 249° |
| 2026-04-30 19:20 | 41.13575 | 16.76243 | 135 ft | 12 kts | 250° |
| 2026-04-30 19:20 | 41.13553 | 16.76134 | 135 ft | 12 kts | 278° |
| 2026-04-30 19:20 | 41.13689 | 16.76141 | 135 ft | 15 kts | 69° |
| 2026-04-30 19:21 | 41.13725 | 16.76266 | 134 ft | 14 kts | 69° |
| 2026-04-30 19:21 | 41.13791 | 16.76500 | 133 ft | 13 kts | 72° |
| 2026-04-30 19:22 | 41.13784 | 16.76535 | 134 ft | 7 kts | 128° |
| 2026-04-30 19:22 | 41.13650 | 16.76501 | 135 ft | 0 kts | 245° |
| 2026-04-30 19:23 | 41.13577 | 16.76513 | 135 ft | 0 kts | 160° |